Liphook, United Kingdom
Current Conditions -  °F | °C
As of 3:50 AM on Friday 31 Oct 2014 (Local Time) from EGVO Reporting Station
Haze Haze  
Wind Chill: 13°   Ceiling: 24000
Heat Index: 13°   Visibility: 3mi
Dew Point: 13°   Wind: 6mph
Humidity: 100%   Direction: 110°ESE
Pressure: 30.03"   Gusts: NA
Location:  51.08°N, 0.8°W
Report Text: EGVO 310350Z 11005KT 5000 BR BKN240 13/13 Q1017 WHT
Loading
Personal Weather Stations






























Interactive Weather Map
Tropical Storm Tracking
New forecast layout! Learn more

10-Day Weather Forecast

Advertisements
Track Severe Weather on mobile